Natick, Massachusetts
Current Conditions -  °F | °C
As of 3:53 AM on Wednesday 28 Jan 2015 (Local Time) from KOWD Reporting Station
Few Clouds Few Clouds  
Wind Chill:   Ceiling: Unl
Heat Index: 12°   Visibility: 10mi
Dew Point:   Wind: 8mph
Humidity: 70%   Direction: 320°NW
Pressure: 29.76"   Gusts: NA
Location:  42.28°N, 71.35°W
Report Text: KOWD 280853Z AUTO 32007KT 10SM FEW032 FEW110 M11/M16 A2976 RMK AO2 SNE27 SLP079 P0000 60000 T11111156 51027 $
Loading
Personal Weather Stations






























Interactive Weather Map New forecast layout! Learn more

10-Day Weather Forecast

Advertisements
Track Severe Weather on mobile